Time;durP1;ratioP1;P1;durP2;ratioP2;P2;SDS_P1;SDS_P2;PMS_P1;PMS_P2;Temp;Humidity;BMP_temperature;BMP_pressure;BME280_temperature;BME280_humidity;BME280_pressure;Samples;Min_cycle;Max_cycle;Signal;HPM_P1;HPM_P2
2022/11/10 00:01:07;;;;;;;9.98;2.78;;;9.30;99.90;;;;;;4995326;28;20108;-77
2022/11/10 00:03:34;;;;;;;6.78;2.10;;;9.30;99.90;;;;;;4995142;28;20586;-77
2022/11/10 00:06:04;;;;;;;8.95;2.70;;;9.30;99.90;;;;;;4978999;28;20664;-77
2022/11/10 00:08:30;;;;;;;8.48;2.67;;;9.30;99.90;;;;;;4994713;28;20034;-77
2022/11/10 00:11:00;;;;;;;12.63;3.17;;;9.30;99.90;;;;;;4995039;28;20052;-77
2022/11/10 00:13:31;;;;;;;9.23;2.50;;;9.20;99.90;;;;;;4994865;28;20057;-78
2022/11/10 00:18:49;;;;;;;14.82;3.10;;;9.20;99.90;;;;;;4993632;28;20053;-77
2022/11/10 00:21:16;;;;;;;9.85;2.63;;;9.20;99.90;;;;;;4978765;28;20470;-77
2022/11/10 00:23:42;;;;;;;12.88;3.00;;;9.20;99.90;;;;;;4994805;28;20041;-77
2022/11/10 00:26:13;;;;;;;12.88;2.60;;;9.20;99.90;;;;;;4994731;28;20131;-78
2022/11/10 00:28:38;;;;;;;13.00;3.15;;;9.10;99.90;;;;;;4994667;28;20129;-77
2022/11/10 00:31:05;;;;;;;7.53;2.63;;;9.10;99.90;;;;;;4978440;28;20084;-77
2022/11/10 00:33:34;;;;;;;6.40;2.30;;;9.10;99.90;;;;;;4994422;28;20108;-78
2022/11/10 00:36:00;;;;;;;12.80;3.00;;;9.20;99.90;;;;;;4994473;28;20129;-77
2022/11/10 00:38:26;;;;;;;16.15;2.83;;;9.10;99.90;;;;;;4994669;28;20128;-77
2022/11/10 00:40:51;;;;;;;9.77;2.90;;;9.20;99.90;;;;;;4994492;28;20042;-77
2022/11/10 00:43:17;;;;;;;11.75;2.65;;;9.20;99.90;;;;;;4994020;28;20046;-77
2022/11/10 00:45:43;;;;;;;11.27;2.95;;;9.20;99.90;;;;;;4993653;28;20038;-77
2022/11/10 00:48:08;;;;;;;13.60;2.83;;;9.10;99.90;;;;;;4993908;28;20400;-77
2022/11/10 00:50:34;;;;;;;9.38;2.45;;;9.10;99.90;;;;;;4994408;28;20037;-77
2022/11/10 00:53:00;;;;;;;7.57;2.35;;;9.10;99.90;;;;;;4994381;28;20411;-77
2022/11/10 00:55:25;;;;;;;12.73;2.90;;;9.10;99.90;;;;;;4994319;28;20050;-77
2022/11/10 00:57:50;;;;;;;11.40;3.10;;;9.10;99.90;;;;;;4994175;28;20462;-77
2022/11/10 01:00:16;;;;;;;12.55;2.75;;;9.10;99.90;;;;;;4978178;28;20041;-77
2022/11/10 01:02:42;;;;;;;12.38;3.10;;;9.10;99.90;;;;;;4994314;28;20037;-77
2022/11/10 01:05:08;;;;;;;12.45;3.20;;;9.10;99.90;;;;;;4978096;28;20041;-77
2022/11/10 01:07:33;;;;;;;10.50;2.90;;;9.10;99.90;;;;;;4992944;28;20041;-77
2022/11/10 01:09:59;;;;;;;13.55;3.15;;;9.10;99.90;;;;;;4993864;28;20112;-77
2022/11/10 01:12:30;;;;;;;7.50;2.88;;;9.10;99.90;;;;;;4993908;28;20050;-77
2022/11/10 01:14:56;;;;;;;10.82;2.80;;;9.10;99.90;;;;;;4977977;28;20096;-77
2022/11/10 01:17:21;;;;;;;10.13;2.83;;;9.10;99.90;;;;;;4994081;28;20049;-77
2022/11/10 01:19:47;;;;;;;9.80;2.55;;;9.10;99.90;;;;;;4994258;28;20045;-77
2022/11/10 01:22:13;;;;;;;12.40;3.08;;;9.10;99.90;;;;;;4993983;28;20095;-78
2022/11/10 01:24:38;;;;;;;11.70;3.17;;;9.10;99.90;;;;;;4993317;28;20041;-77
2022/11/10 01:27:04;;;;;;;13.85;3.17;;;9.20;99.90;;;;;;4993982;28;20103;-77
2022/11/10 01:29:29;;;;;;;14.90;3.20;;;9.20;99.90;;;;;;4993460;28;20029;-78
2022/11/10 01:31:55;;;;;;;13.13;3.42;;;9.20;99.90;;;;;;4994110;28;20416;-78
2022/11/10 01:34:20;;;;;;;12.15;3.97;;;9.20;99.90;;;;;;4993764;28;20045;-77
2022/11/10 01:36:46;;;;;;;10.85;3.72;;;9.20;99.90;;;;;;5011689;28;20418;-77
2022/11/10 01:39:11;;;;;;;15.15;3.92;;;9.10;99.90;;;;;;4993521;28;20526;-78
2022/11/10 01:41:37;;;;;;;16.20;3.95;;;9.10;99.90;;;;;;4993733;28;20045;-78
2022/11/10 01:44:35;;;;;;;14.23;3.80;;;9.10;99.90;;;;;;4993792;28;20045;-77
2022/11/10 01:47:00;;;;;;;15.93;4.57;;;9.10;99.90;;;;;;4989809;28;20407;-77
2022/11/10 01:49:27;;;;;;;12.40;3.83;;;9.10;99.90;;;;;;4993325;28;20041;-77
2022/11/10 01:51:57;;;;;;;15.02;3.75;;;9.10;99.90;;;;;;4993726;28;20037;-78
2022/11/10 01:54:27;;;;;;;14.32;3.88;;;9.10;99.90;;;;;;4993589;28;20042;-77
2022/11/10 01:56:57;;;;;;;11.25;3.33;;;9.10;99.90;;;;;;4993616;28;20120;-78
2022/11/10 01:59:27;;;;;;;11.18;3.83;;;9.10;99.90;;;;;;4993253;28;20050;-77
2022/11/10 02:01:57;;;;;;;13.93;4.18;;;9.00;99.90;;;;;;4993889;28;20573;-77
2022/11/10 02:04:24;;;;;;;9.70;3.72;;;9.00;99.90;;;;;;4993303;28;20060;-77
2022/11/10 02:06:49;;;;;;;12.70;3.97;;;9.00;99.90;;;;;;4992921;28;20034;-77
2022/11/10 02:09:16;;;;;;;11.95;3.95;;;9.00;99.90;;;;;;4991734;28;20124;-77
2022/11/10 02:11:42;;;;;;;9.98;3.88;;;8.90;99.90;;;;;;4993650;28;20100;-77
2022/11/10 02:14:09;;;;;;;15.82;4.18;;;8.90;99.90;;;;;;4993431;28;20048;-78
2022/11/10 02:16:35;;;;;;;17.10;4.32;;;9.00;99.90;;;;;;4993525;28;20092;-77
2022/11/10 02:19:20;;;;;;;16.73;4.15;;;9.00;99.90;;;;;;4994931;28;20121;-77
2022/11/10 02:21:45;;;;;;;18.73;4.55;;;8.90;99.90;;;;;;4996182;28;20080;-77
2022/11/10 02:24:11;;;;;;;15.88;5.18;;;9.00;99.90;;;;;;4995972;28;20073;-77
2022/11/10 02:26:44;;;;;;;15.98;5.05;;;8.90;99.90;;;;;;4997008;28;20504;-77
2022/11/10 02:29:10;;;;;;;16.67;4.70;;;8.90;99.90;;;;;;4996797;28;20049;-77
2022/11/10 02:31:35;;;;;;;12.93;3.97;;;8.90;99.90;;;;;;4997017;28;20404;-77
2022/11/10 02:34:01;;;;;;;13.00;4.22;;;8.90;99.90;;;;;;4996871;28;20053;-77
2022/11/10 02:36:26;;;;;;;19.08;4.40;;;8.90;99.90;;;;;;4996790;28;20052;-77
2022/11/10 02:38:52;;;;;;;19.08;4.22;;;8.90;99.90;;;;;;4996530;28;20038;-77
2022/11/10 02:41:17;;;;;;;15.73;4.55;;;8.90;99.90;;;;;;4997019;28;20496;-77
2022/11/10 02:43:43;;;;;;;15.07;4.30;;;9.00;99.90;;;;;;4996513;28;20049;-77
2022/11/10 02:46:08;;;;;;;16.85;4.60;;;9.00;99.90;;;;;;4980618;28;20042;-77
2022/11/10 02:48:34;;;;;;;16.15;4.97;;;9.00;99.90;;;;;;4996352;28;20045;-77
2022/11/10 02:50:59;;;;;;;14.20;4.47;;;9.00;99.90;;;;;;4996470;28;20037;-77
2022/11/10 02:53:25;;;;;;;13.48;4.10;;;9.00;99.90;;;;;;4996578;28;20046;-77
2022/11/10 02:55:50;;;;;;;17.67;4.55;;;9.00;99.90;;;;;;4996709;28;20138;-77
2022/11/10 02:58:16;;;;;;;17.13;4.38;;;9.00;99.90;;;;;;4996086;28;20045;-77
2022/11/10 03:00:41;;;;;;;14.10;4.13;;;9.00;99.90;;;;;;4996347;28;20042;-77
2022/11/10 03:03:07;;;;;;;14.27;4.28;;;9.00;99.90;;;;;;4996308;28;20049;-77
2022/11/10 03:05:33;;;;;;;13.10;4.30;;;9.00;99.90;;;;;;4996387;28;20056;-77
2022/11/10 03:08:00;;;;;;;17.58;4.30;;;9.00;99.90;;;;;;4995883;28;20041;-77
2022/11/10 03:10:26;;;;;;;14.38;4.28;;;9.00;99.90;;;;;;4996185;28;20038;-77
2022/11/10 03:12:54;;;;;;;14.20;4.05;;;9.00;99.90;;;;;;4996025;28;20034;-77
2022/11/10 03:15:20;;;;;;;18.27;3.92;;;9.00;99.90;;;;;;4996161;28;20503;-77
2022/11/10 03:17:45;;;;;;;13.55;4.32;;;9.00;99.90;;;;;;4995899;28;20049;-77
2022/11/10 03:20:11;;;;;;;13.15;3.95;;;9.00;99.90;;;;;;4995932;28;20073;-77
2022/11/10 03:22:36;;;;;;;13.85;4.13;;;9.00;99.90;;;;;;4995838;28;20046;-78
2022/11/10 03:25:02;;;;;;;15.43;4.00;;;9.00;99.90;;;;;;4996014;28;20033;-77
2022/11/10 03:27:28;;;;;;;13.73;4.60;;;9.00;99.90;;;;;;4979628;28;20504;-78
2022/11/10 03:29:53;;;;;;;12.65;4.05;;;9.00;99.90;;;;;;4978919;28;20124;-77
2022/11/10 03:32:19;;;;;;;15.02;4.00;;;9.00;99.90;;;;;;4996003;28;20129;-77
2022/11/10 03:34:44;;;;;;;19.30;4.88;;;9.00;99.90;;;;;;4995717;28;20041;-77
2022/11/10 03:37:10;;;;;;;14.15;4.05;;;9.00;99.90;;;;;;4995702;28;20403;-77
2022/11/10 03:39:35;;;;;;;14.50;4.13;;;9.00;99.90;;;;;;4994704;28;20327;-77
2022/11/10 03:42:01;;;;;;;12.07;3.63;;;9.00;99.90;;;;;;4995898;28;20439;-77
2022/11/10 03:44:26;;;;;;;15.98;4.10;;;9.00;99.90;;;;;;4995487;28;20085;-77
2022/11/10 03:46:52;;;;;;;13.10;3.95;;;9.00;99.90;;;;;;4995785;28;20092;-77
2022/11/10 03:49:17;;;;;;;16.20;4.40;;;9.00;99.90;;;;;;4994739;28;20038;-77
2022/11/10 03:51:43;;;;;;;14.93;4.15;;;8.90;99.90;;;;;;4995399;28;20038;-77
2022/11/10 03:54:08;;;;;;;13.13;4.07;;;8.80;99.90;;;;;;4995592;28;20104;-77
2022/11/10 03:56:34;;;;;;;11.10;3.78;;;8.90;99.90;;;;;;4995331;28;20049;-77
2022/11/10 03:58:59;;;;;;;14.55;4.05;;;8.90;99.90;;;;;;4994901;28;20042;-78
2022/11/10 04:01:25;;;;;;;17.08;4.28;;;8.90;99.90;;;;;;4995378;28;20041;-77
2022/11/10 04:03:50;;;;;;;11.73;3.60;;;8.90;99.90;;;;;;4994982;28;20048;-77
2022/11/10 04:09:00;;;;;;;11.88;3.90;;;8.90;99.90;;;;;;4994611;28;20045;-77
2022/11/10 04:16:56;;;;;;;15.13;4.22;;;8.90;99.90;;;;;;4994768;28;20046;-77
2022/11/10 04:19:22;;;;;;;17.13;4.43;;;8.90;99.90;;;;;;4978431;28;20412;-77
2022/11/10 04:21:47;;;;;;;18.20;3.97;;;8.90;99.90;;;;;;4994741;28;20045;-77
2022/11/10 04:24:13;;;;;;;15.13;4.05;;;9.00;99.90;;;;;;4994812;28;20042;-77
2022/11/10 04:26:39;;;;;;;14.60;4.43;;;9.00;99.90;;;;;;4977744;28;20037;-77
2022/11/10 04:29:09;;;;;;;14.48;4.72;;;9.00;99.90;;;;;;4977452;28;20048;-77
2022/11/10 04:31:37;;;;;;;17.67;5.22;;;9.00;99.90;;;;;;4994392;28;20045;-77
2022/11/10 04:34:08;;;;;;;17.05;4.90;;;9.10;99.90;;;;;;4994688;28;20042;-77
2022/11/10 04:36:37;;;;;;;19.77;5.47;;;9.10;99.90;;;;;;4994154;28;20124;-77
2022/11/10 04:39:03;;;;;;;17.63;5.30;;;9.10;99.90;;;;;;4994023;28;20052;-77
2022/11/10 04:41:29;;;;;;;20.58;5.80;;;9.10;99.90;;;;;;4993784;28;20402;-78
2022/11/10 04:43:56;;;;;;;21.98;6.13;;;9.20;99.90;;;;;;4994454;28;20128;-78
2022/11/10 04:46:22;;;;;;;22.77;5.75;;;9.20;99.90;;;;;;4994311;28;20117;-77
2022/11/10 04:48:49;;;;;;;14.93;5.50;;;9.20;99.90;;;;;;4994447;28;20434;-77
2022/11/10 04:51:16;;;;;;;18.60;6.20;;;9.20;99.90;;;;;;4993329;28;20313;-77
2022/11/10 04:53:41;;;;;;;14.95;5.35;;;9.20;99.90;;;;;;4993608;28;20129;-77
2022/11/10 04:56:15;;;;;;;20.10;5.32;;;9.20;99.90;;;;;;4978082;28;20125;-77
2022/11/10 04:58:41;;;;;;;;;;;9.20;99.90;;;;;;4994580;28;20234;-77
2022/11/10 05:01:12;;;;;;;21.60;5.35;;;9.30;99.90;;;;;;4994371;28;20026;-77
2022/11/10 05:03:37;;;;;;;18.42;5.45;;;9.30;99.90;;;;;;4987157;28;20411;-77
2022/11/10 05:06:03;;;;;;;20.05;5.65;;;9.30;99.90;;;;;;4988285;28;20033;-77
2022/11/10 05:08:28;;;;;;;15.93;4.68;;;9.20;99.90;;;;;;4993520;28;20034;-77
2022/11/10 05:10:54;;;;;;;23.17;5.40;;;9.30;99.90;;;;;;4993983;28;20038;-77
2022/11/10 05:13:19;;;;;;;21.48;5.32;;;9.20;99.90;;;;;;4992807;28;20038;-77
2022/11/10 05:15:45;;;;;;;19.67;5.40;;;9.20;99.90;;;;;;4992339;28;20049;-78
2022/11/10 05:18:10;;;;;;;22.58;5.65;;;9.30;99.90;;;;;;4975539;28;20132;-78
2022/11/10 05:20:36;;;;;;;15.85;5.20;;;9.20;99.90;;;;;;4991836;28;20041;-78
2022/11/10 05:25:45;;;;;;;21.38;5.70;;;9.30;99.90;;;;;;4992365;28;20045;-77
2022/11/10 05:28:11;;;;;;;16.38;5.07;;;9.30;99.90;;;;;;4992283;28;20397;-77
2022/11/10 05:30:38;;;;;;;25.52;5.05;;;9.30;99.90;;;;;;4993795;28;20044;-78
2022/11/10 05:33:04;;;;;;;21.35;4.50;;;9.30;99.90;;;;;;4993968;28;20050;-78
2022/11/10 05:35:30;;;;;;;21.88;5.15;;;9.30;99.90;;;;;;4993671;28;20042;-77
2022/11/10 05:37:56;;;;;;;21.48;5.25;;;9.30;99.90;;;;;;4992914;28;20054;-77
2022/11/10 05:40:21;;;;;;;22.27;4.85;;;9.30;99.90;;;;;;4993006;28;20479;-77
2022/11/10 05:42:51;;;;;;;19.80;5.00;;;9.30;99.90;;;;;;4993780;28;20053;-78
2022/11/10 05:45:18;;;;;;;15.90;4.47;;;9.30;99.90;;;;;;4993769;28;20038;-78
2022/11/10 05:47:44;;;;;;;16.35;4.38;;;9.30;99.90;;;;;;4993545;28;20038;-77
2022/11/10 05:50:10;;;;;;;21.80;4.53;;;9.30;99.90;;;;;;4993767;28;20496;-77
2022/11/10 05:52:41;;;;;;;23.65;4.78;;;9.30;99.90;;;;;;4993492;28;20038;-78
2022/11/10 05:55:07;;;;;;;19.60;4.68;;;9.30;99.90;;;;;;4997405;28;20050;-77
2022/11/10 05:57:32;;;;;;;22.80;3.95;;;9.30;99.90;;;;;;4997513;28;20057;-77
2022/11/10 05:59:58;;;;;;;16.23;4.18;;;9.30;99.90;;;;;;4997582;28;20049;-77
2022/11/10 06:02:23;;;;;;;19.85;4.82;;;9.30;99.90;;;;;;4981225;28;20041;-78
2022/11/10 06:04:49;;;;;;;22.65;4.90;;;9.30;99.90;;;;;;4997396;28;20049;-77
2022/11/10 06:07:14;;;;;;;17.38;4.15;;;9.30;99.90;;;;;;4997356;28;20048;-77
2022/11/10 06:09:40;;;;;;;14.57;4.55;;;9.40;99.90;;;;;;4996945;28;20038;-77
2022/11/10 06:12:06;;;;;;;23.83;4.20;;;9.30;99.90;;;;;;4997018;28;20046;-78
2022/11/10 06:14:31;;;;;;;19.17;4.07;;;9.40;99.90;;;;;;4995860;28;20042;-78
2022/11/10 06:16:57;;;;;;;18.90;4.03;;;9.40;99.90;;;;;;4997271;28;20046;-78
2022/11/10 06:19:23;;;;;;;18.90;3.97;;;9.30;99.90;;;;;;4997029;28;20499;-77
2022/11/10 06:21:48;;;;;;;26.20;4.85;;;9.30;99.90;;;;;;4997182;28;20488;-77
2022/11/10 06:24:14;;;;;;;17.42;3.60;;;9.30;99.90;;;;;;4996932;28;20503;-79
2022/11/10 06:26:39;;;;;;;16.58;3.90;;;9.30;99.90;;;;;;4997444;28;20428;-77
2022/11/10 06:29:05;;;;;;;16.05;3.60;;;9.30;99.90;;;;;;4996637;28;20046;-77
2022/11/10 06:31:30;;;;;;;16.42;4.00;;;9.30;99.90;;;;;;4981080;28;20049;-78
2022/11/10 06:33:56;;;;;;;20.65;4.30;;;9.30;99.90;;;;;;4996772;28;20093;-77
2022/11/10 06:36:21;;;;;;;18.55;4.10;;;9.30;99.90;;;;;;4996966;28;20522;-78
2022/11/10 06:38:47;;;;;;;20.05;4.68;;;9.30;99.90;;;;;;4996436;28;20120;-77
2022/11/10 06:41:12;;;;;;;22.15;4.40;;;9.30;99.90;;;;;;4996685;28;20518;-77
2022/11/10 06:43:38;;;;;;;17.48;4.20;;;9.30;99.90;;;;;;4996794;28;20050;-77
2022/11/10 06:46:04;;;;;;;21.27;4.90;;;9.30;99.90;;;;;;4996599;28;20034;-77
2022/11/10 06:48:29;;;;;;;20.05;4.32;;;9.40;99.90;;;;;;4993383;28;20065;-78
2022/11/10 06:50:58;;;;;;;25.80;4.03;;;9.40;99.90;;;;;;4995678;28;20072;-78
2022/11/10 06:53:24;;;;;;;20.38;4.78;;;9.50;99.90;;;;;;4979889;28;20407;-78
2022/11/10 06:55:49;;;;;;;16.08;4.47;;;9.50;99.90;;;;;;4995627;28;20034;-78
2022/11/10 06:58:15;;;;;;;20.70;4.65;;;9.50;99.90;;;;;;4995812;28;20520;-78
2022/11/10 07:00:40;;;;;;;21.90;4.75;;;9.50;99.90;;;;;;4995612;28;20034;-78
2022/11/10 07:03:09;;;;;;;17.50;4.88;;;9.50;99.90;;;;;;4995198;28;20098;-78
2022/11/10 07:05:35;;;;;;;15.95;4.53;;;9.60;99.90;;;;;;4994617;28;20042;-79
2022/11/10 07:08:09;;;;;;;23.60;5.60;;;9.60;99.90;;;;;;4995395;28;20048;-78
2022/11/10 07:10:35;;;;;;;19.50;4.70;;;9.60;99.90;;;;;;4995682;28;20499;-77
2022/11/10 07:13:02;;;;;;;22.88;4.90;;;9.60;99.90;;;;;;4995557;28;20037;-77
2022/11/10 07:15:29;;;;;;;25.77;5.15;;;9.60;99.90;;;;;;4995587;28;20038;-78
2022/11/10 07:17:55;;;;;;;24.08;5.82;;;9.70;99.90;;;;;;4995543;28;20045;-78
2022/11/10 07:20:20;;;;;;;13.57;4.38;;;9.70;99.90;;;;;;4995688;28;20060;-78
2022/11/10 07:22:46;;;;;;;15.13;4.78;;;9.70;99.90;;;;;;4995667;28;20042;-78
2022/11/10 07:25:12;;;;;;;19.95;4.35;;;9.80;99.90;;;;;;4995467;28;20038;-78
2022/11/10 07:27:37;;;;;;;20.08;4.47;;;9.80;99.90;;;;;;4995139;28;20442;-77
2022/11/10 07:30:04;;;;;;;18.25;4.20;;;9.80;99.90;;;;;;4995657;28;20133;-78
2022/11/10 07:32:30;;;;;;;14.73;4.07;;;9.80;99.90;;;;;;4995457;28;20041;-77
2022/11/10 07:34:55;;;;;;;20.55;4.50;;;9.80;99.90;;;;;;4995541;28;20034;-77
2022/11/10 07:37:21;;;;;;;19.70;4.38;;;9.80;99.90;;;;;;4978738;28;20045;-78
2022/11/10 07:39:46;;;;;;;19.45;4.30;;;9.80;99.90;;;;;;5011099;28;20556;-77
2022/11/10 07:42:12;;;;;;;20.45;4.20;;;9.70;99.90;;;;;;4995935;28;20057;-77
2022/11/10 07:44:37;;;;;;;18.67;4.00;;;9.70;99.90;;;;;;4995499;28;20042;-78
2022/11/10 07:47:03;;;;;;;15.63;3.65;;;9.70;99.90;;;;;;5013570;28;20038;-78
2022/11/10 07:49:28;;;;;;;19.80;3.92;;;9.70;99.90;;;;;;4995304;28;20107;-77
2022/11/10 07:51:54;;;;;;;20.48;4.20;;;9.80;99.90;;;;;;4994773;28;20042;-77
2022/11/10 07:54:20;;;;;;;18.02;3.95;;;9.70;99.90;;;;;;4995285;28;20557;-77
2022/11/10 07:56:45;;;;;;;19.08;3.88;;;9.70;99.90;;;;;;4988718;28;20104;-78
2022/11/10 07:59:11;;;;;;;16.30;3.40;;;9.80;99.90;;;;;;4979574;28;20072;-77
2022/11/10 08:01:36;;;;;;;15.07;3.38;;;9.80;99.90;;;;;;5011543;28;20381;-77
2022/11/10 08:04:02;;;;;;;14.50;3.97;;;9.70;99.90;;;;;;5012760;28;20543;-77
2022/11/10 08:06:27;;;;;;;21.27;4.50;;;9.70;99.90;;;;;;4995128;28;20458;-78
2022/11/10 08:08:53;;;;;;;25.92;4.80;;;9.70;99.90;;;;;;4994639;28;20095;-77
2022/11/10 08:11:18;;;;;;;20.83;4.45;;;9.80;99.90;;;;;;4995140;28;20044;-77
2022/11/10 08:13:44;;;;;;;20.00;4.40;;;9.80;99.90;;;;;;4978781;28;20045;-77
2022/11/10 08:16:09;;;;;;;20.58;4.72;;;9.80;99.90;;;;;;4994792;28;20495;-77
2022/11/10 08:18:35;;;;;;;20.23;4.60;;;9.80;99.90;;;;;;4994696;28;20045;-77
2022/11/10 08:21:01;;;;;;;21.40;5.07;;;9.90;99.90;;;;;;4994947;28;20129;-77
2022/11/10 08:23:30;;;;;;;16.33;4.07;;;10.00;99.90;;;;;;4994677;28;20048;-77
2022/11/10 08:26:00;;;;;;;25.48;5.15;;;10.10;99.90;;;;;;4994653;28;20033;-76
2022/11/10 08:28:25;;;;;;;17.23;5.05;;;10.20;99.90;;;;;;4994468;28;20049;-77
2022/11/10 08:30:51;;;;;;;21.23;4.25;;;10.30;99.90;;;;;;4993885;28;20508;-77
2022/11/10 08:33:19;;;;;;;21.20;4.90;;;10.30;99.90;;;;;;4993997;28;20053;-78
2022/11/10 08:35:46;;;;;;;20.63;5.07;;;10.40;99.90;;;;;;4994629;28;20053;-77
2022/11/10 08:38:15;;;;;;;18.02;4.70;;;10.50;99.90;;;;;;4994356;28;20042;-77
2022/11/10 08:40:42;;;;;;;22.70;5.18;;;10.60;99.90;;;;;;4994600;28;20057;-77
2022/11/10 08:43:08;;;;;;;21.30;5.28;;;10.60;99.90;;;;;;4994686;28;20050;-77
2022/11/10 08:45:39;;;;;;;17.92;4.53;;;10.70;99.90;;;;;;4994668;28;20511;-77
2022/11/10 08:48:13;;;;;;;18.27;4.45;;;10.80;99.90;;;;;;4994126;28;20092;-78
2022/11/10 08:50:39;;;;;;;22.63;4.85;;;10.70;99.90;;;;;;4994511;28;20034;-78
2022/11/10 08:53:11;;;;;;;14.05;4.18;;;10.70;99.90;;;;;;4994432;28;20051;-78
2022/11/10 08:55:36;;;;;;;21.60;4.68;;;10.80;99.90;;;;;;4994438;28;20044;-77
2022/11/10 08:58:04;;;;;;;18.15;4.10;;;10.80;99.90;;;;;;4993329;28;20491;-77
2022/11/10 09:00:31;;;;;;;18.52;4.75;;;10.80;99.90;;;;;;4994406;28;20134;-77
2022/11/10 09:03:03;;;;;;;20.10;5.22;;;10.90;99.90;;;;;;4994444;28;20048;-77
2022/11/10 09:05:28;;;;;;;17.40;4.40;;;10.90;99.90;;;;;;4994085;28;20049;-77
2022/11/10 09:07:54;;;;;;;19.60;3.97;;;11.00;99.90;;;;;;4993851;28;20046;-77
2022/11/10 09:10:20;;;;;;;22.00;4.47;;;11.10;99.90;;;;;;4994171;28;20081;-77
2022/11/10 09:12:45;;;;;;;21.52;5.05;;;11.20;99.90;;;;;;4994210;28;20042;-77
2022/11/10 09:15:11;;;;;;;18.02;4.35;;;11.20;99.90;;;;;;4994197;28;20077;-77
2022/11/10 09:17:38;;;;;;;14.95;4.45;;;11.30;99.90;;;;;;4994122;28;20507;-77
2022/11/10 09:20:06;;;;;;;23.70;4.93;;;11.30;99.90;;;;;;4993808;28;20499;-77
2022/11/10 09:22:33;;;;;;;19.95;5.55;;;11.40;99.90;;;;;;4993372;28;20372;-77
2022/11/10 09:24:58;;;;;;;20.48;5.25;;;11.40;99.90;;;;;;4977470;28;20034;-76
2022/11/10 09:27:24;;;;;;;21.45;5.55;;;11.40;99.90;;;;;;4993464;28;20042;-78
2022/11/10 09:29:49;;;;;;;26.38;5.72;;;11.50;99.90;;;;;;4976784;28;20042;-77
2022/11/10 09:32:15;;;;;;;22.55;5.32;;;11.50;99.90;;;;;;4993556;28;20042;-77
2022/11/10 09:34:42;;;;;;;18.73;5.40;;;11.50;99.90;;;;;;4993921;28;20552;-77
2022/11/10 09:37:07;;;;;;;16.63;5.07;;;11.60;99.90;;;;;;4993742;28;20046;-78
2022/11/10 09:39:33;;;;;;;19.00;5.97;;;11.60;99.90;;;;;;4993718;28;20125;-77
2022/11/10 09:41:58;;;;;;;18.52;5.97;;;11.60;99.90;;;;;;5011608;28;20045;-77
2022/11/10 09:44:34;;;;;;;19.10;6.32;;;11.60;99.90;;;;;;4993592;28;20056;-77
2022/11/10 09:47:15;;;;;;;20.00;6.97;;;11.70;99.90;;;;;;4993898;28;20419;-77
2022/11/10 09:49:45;;;;;;;19.88;7.75;;;11.70;99.90;;;;;;4993574;28;20046;-77
2022/11/10 09:52:12;;;;;;;27.83;8.68;;;11.70;99.90;;;;;;4992856;28;20049;-77
2022/11/10 09:54:47;;;;;;;19.88;8.10;;;11.70;99.90;;;;;;4993649;28;20044;-76
2022/11/10 09:57:16;;;;;;;21.05;7.97;;;11.70;99.90;;;;;;4993771;28;20037;-77
2022/11/10 09:59:43;;;;;;;22.65;8.85;;;11.70;99.90;;;;;;4993364;28;20135;-77
2022/11/10 10:02:36;;;;;;;25.88;9.23;;;11.80;99.90;;;;;;4993501;28;20492;-76
2022/11/10 10:05:06;;;;;;;24.50;9.13;;;11.80;99.90;;;;;;4993865;28;20389;-76
2022/11/10 10:07:48;;;;;;;21.33;8.32;;;11.80;99.90;;;;;;4993153;28;20045;-77
2022/11/10 10:10:25;;;;;;;24.20;9.00;;;11.80;99.90;;;;;;4993525;28;20046;-77
2022/11/10 10:13:27;;;;;;;18.23;7.32;;;11.80;99.90;;;;;;4977282;28;20107;-76
2022/11/10 10:16:05;;;;;;;17.27;7.25;;;11.90;99.90;;;;;;4977403;28;20536;-76
2022/11/10 10:18:58;;;;;;;23.20;7.45;;;12.10;99.90;;;;;;4993249;28;20121;-77
2022/11/10 10:21:45;;;;;;;24.88;7.93;;;12.20;99.90;;;;;;4988088;28;20076;-77
2022/11/10 10:24:14;;;;;;;22.55;6.82;;;12.30;99.90;;;;;;4993211;28;20042;-77
2022/11/10 10:26:45;;;;;;;22.02;7.10;;;12.40;99.90;;;;;;4993325;28;20064;-77
2022/11/10 10:29:38;;;;;;;19.63;7.22;;;12.40;99.90;;;;;;4993190;28;20103;-76
2022/11/10 10:32:04;;;;;;;23.55;7.30;;;12.30;99.90;;;;;;4989277;28;20475;-76
2022/11/10 10:34:33;;;;;;;17.90;6.75;;;12.20;99.90;;;;;;4993426;28;20046;-77
2022/11/10 10:36:59;;;;;;;23.80;7.57;;;12.20;99.90;;;;;;4993332;28;20053;-77
2022/11/10 10:39:35;;;;;;;20.58;7.03;;;12.20;99.90;;;;;;4977939;28;20049;-77
2022/11/10 10:42:03;;;;;;;20.92;7.90;;;12.20;99.90;;;;;;4997121;28;20057;-77
2022/11/10 10:44:29;;;;;;;19.65;7.47;;;12.30;99.90;;;;;;4996660;28;20064;-77
2022/11/10 10:46:57;;;;;;;29.23;8.48;;;12.30;99.90;;;;;;4996763;28;20041;-77
2022/11/10 10:49:24;;;;;;;17.98;7.05;;;12.30;99.90;;;;;;4996152;28;20068;-77
2022/11/10 10:52:05;;;;;;;17.67;6.97;;;12.40;99.90;;;;;;4996109;28;20045;-77
2022/11/10 10:54:32;;;;;;;20.30;7.30;;;12.40;99.90;;;;;;4996311;28;20038;-77
2022/11/10 10:57:24;;;;;;;18.25;7.50;;;12.40;99.90;;;;;;4996005;28;20068;-77
2022/11/10 10:59:52;;;;;;;15.52;6.20;;;12.40;99.90;;;;;;4996522;28;20117;-77
2022/11/10 11:02:38;;;;;;;20.48;7.28;;;12.40;99.90;;;;;;4996726;28;20389;-77
2022/11/10 11:05:17;;;;;;;15.73;5.53;;;12.40;99.90;;;;;;4996602;28;20379;-77
2022/11/10 11:07:57;;;;;;;21.00;5.88;;;12.40;99.90;;;;;;4996094;28;20156;-77
2022/11/10 11:10:29;;;;;;;22.20;7.07;;;12.40;99.90;;;;;;4980501;28;20034;-76
2022/11/10 11:13:25;;;;;;;17.60;5.85;;;12.40;99.90;;;;;;4996505;28;20062;-77
2022/11/10 11:16:20;;;;;;;16.95;6.40;;;12.50;99.90;;;;;;4996298;28;20048;-76
2022/11/10 11:18:45;;;;;;;17.40;5.88;;;12.60;99.90;;;;;;4991185;28;20081;-76
2022/11/10 11:21:29;;;;;;;20.70;5.68;;;12.60;99.90;;;;;;4996039;28;20096;-76
2022/11/10 11:24:27;;;;;;;20.50;5.88;;;12.60;99.90;;;;;;4996047;28;20054;-77
2022/11/10 11:27:04;;;;;;;13.10;5.00;;;12.60;99.90;;;;;;4996127;28;20034;-77
2022/11/10 11:29:37;;;;;;;19.58;5.32;;;12.60;99.90;;;;;;4995654;28;20095;-77
2022/11/10 11:32:29;;;;;;;16.23;4.80;;;12.60;99.90;;;;;;4995919;28;20040;-77
2022/11/10 11:35:17;;;;;;;18.65;4.55;;;12.60;99.90;;;;;;4996172;28;20427;-77
2022/11/10 11:38:05;;;;;;;19.27;4.93;;;12.70;99.90;;;;;;4995900;28;20173;-76
2022/11/10 11:41:06;;;;;;;15.90;4.63;;;12.70;99.90;;;;;;4996087;28;20356;-77
2022/11/10 11:44:06;;;;;;;20.50;5.65;;;12.80;99.90;;;;;;4979622;28;20046;-76
2022/11/10 11:46:43;;;;;;;19.30;5.63;;;12.90;99.90;;;;;;4995846;28;20400;-77
2022/11/10 11:49:50;;;;;;;17.20;5.10;;;12.90;99.90;;;;;;4995277;28;20045;-77
2022/11/10 11:52:41;;;;;;;19.10;5.28;;;13.00;99.90;;;;;;4994952;28;20072;-77
2022/11/10 11:55:34;;;;;;;19.48;5.00;;;13.00;99.90;;;;;;4995460;28;20125;-76
2022/11/10 11:58:16;;;;;;;14.68;4.15;;;13.10;99.90;;;;;;4995060;28;20037;-76
2022/11/10 12:00:51;;;;;;;23.05;4.57;;;13.10;99.90;;;;;;4995503;28;20084;-77
2022/11/10 12:03:35;;;;;;;21.50;4.30;;;13.20;99.90;;;;;;4994647;28;20082;-77
2022/11/10 12:06:33;;;;;;;17.35;4.72;;;13.20;99.90;;;;;;4995371;28;20448;-77
2022/11/10 12:09:23;;;;;;;15.98;4.00;;;13.20;99.90;;;;;;4989443;28;20068;-77
2022/11/10 12:12:26;;;;;;;17.77;4.22;;;13.20;99.90;;;;;;4995074;28;20049;-77
2022/11/10 12:15:13;;;;;;;18.92;4.45;;;13.20;99.90;;;;;;4994282;28;20099;-77
2022/11/10 12:17:53;;;;;;;14.77;3.40;;;13.30;99.90;;;;;;4993798;28;20038;-77
2022/11/10 12:20:53;;;;;;;14.82;3.88;;;13.30;99.90;;;;;;4978795;28;20101;-76
2022/11/10 12:23:48;;;;;;;19.48;4.15;;;13.40;99.90;;;;;;4994933;28;20439;-77
2022/11/10 12:26:33;;;;;;;16.00;3.58;;;13.30;99.90;;;;;;4995029;28;20592;-76
2022/11/10 12:29:18;;;;;;;20.13;3.63;;;13.40;99.90;;;;;;4975294;28;20049;-76
2022/11/10 12:31:46;;;;;;;19.05;3.58;;;13.30;99.90;;;;;;4991761;28;20554;-78
2022/11/10 12:34:36;;;;;;;19.00;4.15;;;13.30;99.90;;;;;;4994047;28;20100;-77
2022/11/10 12:37:05;;;;;;;18.58;3.33;;;13.30;99.90;;;;;;4984653;28;20042;-77
2022/11/10 12:40:09;;;;;;;16.45;4.10;;;13.30;99.90;;;;;;4993964;28;20042;-76
2022/11/10 12:42:37;;;;;;;12.17;3.10;;;13.30;99.90;;;;;;4972366;28;20069;-77
2022/11/10 12:45:17;;;;;;;20.50;3.53;;;13.30;99.90;;;;;;4994046;28;20280;-77
2022/11/10 12:47:45;;;;;;;18.15;3.88;;;13.30;99.90;;;;;;4993591;28;20048;-77
2022/11/10 12:50:40;;;;;;;14.20;3.00;;;13.20;99.90;;;;;;4994558;28;20402;-77
2022/11/10 12:53:25;;;;;;;20.20;3.00;;;13.30;99.90;;;;;;4994519;28;20042;-77
2022/11/10 12:56:11;;;;;;;16.17;2.90;;;13.30;99.90;;;;;;4994545;28;20046;-77
2022/11/10 12:58:37;;;;;;;20.90;3.78;;;13.30;99.90;;;;;;4993951;28;20045;-77
2022/11/10 13:01:16;;;;;;;16.75;3.40;;;13.20;99.90;;;;;;4994256;28;20034;-77
2022/11/10 13:04:00;;;;;;;17.85;3.00;;;13.20;99.90;;;;;;4993500;28;20054;-77
2022/11/10 13:06:30;;;;;;;;;;;13.20;99.90;;;;;;4994701;28;20061;-77
2022/11/10 13:08:56;;;;;;;14.40;2.47;;;13.30;99.90;;;;;;5010120;28;19921;-76
2022/11/10 13:11:34;;;;;;;14.50;3.00;;;13.30;99.90;;;;;;4993945;28;20038;-77